Latest Weather Observations for Lucas Heights

IDN60801

Issued at 8:32 am EST Sunday 5 July 2015 (issued every 30 minutes, with the page automatically refreshed every 10 minutes)

About weather observations | Map of weather stations | Latest weather observations for NSW | Other Formats
Station Details ID: 066023 Name: LUCAS HEIGHTS AWS Lat: -34.05 Lon: 150.98 Height: 140.0 m
Data from the previous 72 hours. | See also: Recent months for locations in New South Wales
Date/Time
EST
Temp
°C
App
Temp
°C
Dew
Point
Rel
Hum
%
Delta-T
°C
Wind Press
QNH
hPa
Press
MSL
hPa
Rain
since 9 am
mm
Dir
 
Spd
km/h
Gust
km/h
Spd
kts
Gust
kts
05/08:15am 6.5 1.0 1.7 71 2.0 WSW 20 24 11 13 1021.9 - 0.0
05/08:00am 5.7 -0.2 1.4 74 1.7 WSW 22 24 12 13 1021.9 - 0.0
05/07:45am 5.3 -0.3 1.3 75 1.6 WSW 20 24 11 13 1021.9 - 0.0
05/07:30am 5.0 -0.4 1.0 75 1.6 WSW 19 22 10 12 1021.8 - 0.0
05/07:15am 4.8 -0.9 0.6 74 1.6 WSW 20 24 11 13 1021.6 - 0.0
05/07:00am 5.2 0.1 1.0 74 1.7 WSW 17 20 9 11 1021.5 - 0.0
05/06:45am 5.4 -0.2 1.3 75 1.6 WSW 20 24 11 13 1021.3 - 0.0
05/06:30am 5.1 -0.5 1.3 76 1.5 WSW 20 22 11 12 1021.2 - 0.0
05/06:15am 4.5 -1.2 0.6 76 1.5 WSW 20 22 11 12 1021.1 - 0.0
05/06:00am 4.7 -0.4 0.9 76 1.5 WSW 17 22 9 12 1021.1 - 0.0
05/05:45am 4.6 -0.1 0.6 75 1.6 WSW 15 22 8 12 1021.1 - 0.0
05/05:30am 4.8 -0.3 0.7 75 1.6 W 17 22 9 12 1021.0 - 0.0
05/05:15am 5.0 0.7 0.9 75 1.6 W 13 19 7 10 1020.9 - 0.0
05/05:00am 5.2 0.2 1.2 75 1.6 WSW 17 19 9 10 1020.9 - 0.0
05/04:45am 4.7 -0.4 0.6 75 1.6 SW 17 19 9 10 1020.8 - 0.0
05/04:30am 4.9 -0.6 0.7 74 1.6 WSW 19 20 10 11 1020.9 - 0.0
05/04:15am 4.9 -0.6 0.5 73 1.7 WSW 19 22 10 12 1020.9 - 0.0
05/04:00am 5.4 -0.1 0.7 72 1.8 WSW 19 20 10 11 1020.9 - 0.0
05/03:45am 5.6 0.5 0.9 72 1.9 SW 17 20 9 11 1020.9 - 0.0
05/03:30am 5.7 1.4 0.9 71 1.9 SW 13 17 7 9 1021.0 - 0.0
05/03:15am 5.9 1.2 1.1 71 1.9 SW 15 19 8 10 1021.1 - 0.0
05/03:00am 5.7 0.3 1.1 72 1.8 SW 19 20 10 11 1021.2 - 0.0
05/02:45am 5.6 0.2 1.0 72 1.8 SW 19 22 10 12 1021.3 - 0.0
05/02:30am 5.6 0.1 0.9 72 1.9 SW 19 22 10 12 1021.4 - 0.0
05/02:15am 5.8 0.3 0.8 70 2.0 SW 19 22 10 12 1021.4 - 0.0
05/02:00am 6.1 1.4 0.8 69 2.1 SW 15 19 8 10 1021.5 - 0.0
05/01:45am 6.5 2.2 1.1 68 2.2 SW 13 17 7 9 1021.6 - 0.0
05/01:30am 6.7 1.7 1.2 68 2.2 SSW 17 19 9 10 1021.5 - 0.0
05/01:15am 6.8 1.8 1.4 68 2.2 SSW 17 19 9 10 1021.4 - 0.0
05/01:00am 6.6 2.0 1.3 69 2.1 SSW 15 19 8 10 1021.4 - 0.0
05/12:45am 6.7 2.0 1.2 68 2.2 SSW 15 20 8 11 1021.4 - 0.0
05/12:30am 6.9 1.9 1.3 67 2.3 SSW 17 20 9 11 1021.5 - 0.0
05/12:15am 6.6 1.5 1.0 67 2.2 SSW 17 22 9 12 1021.6 - 0.0
05/12:00am 6.9 1.5 1.1 66 2.3 SSW 19 22 10 12 1021.7 - 0.0
 
Date/Time
EST
Temp
°C
App
Temp
°C
Dew
Point
Rel
Hum
%
Delta-T
°C
Wind Press
QNH
hPa
Press
MSL
hPa
Rain
since 9 am
mm
Dir
 
Spd
km/h
Gust
km/h
Spd
kts
Gust
kts
04/11:45pm 7.2 1.8 1.1 65 2.5 SSW 19 24 10 13 1021.7 - 0.0
04/11:30pm 7.4 2.0 1.2 65 2.5 SW 19 24 10 13 1021.8 - 0.0
04/11:15pm 7.6 2.2 1.2 64 2.6 SW 19 24 10 13 1021.9 - 0.0
04/11:00pm 7.7 2.3 1.2 63 2.6 SSW 19 28 10 15 1021.8 - 0.0
04/10:45pm 8.0 2.0 1.2 62 2.8 SW 22 32 12 17 1021.8 - 0.0
04/10:30pm 8.1 2.1 1.2 62 2.8 SW 22 32 12 17 1021.8 - 0.0
04/10:15pm 8.0 2.0 1.2 62 2.8 SW 22 30 12 16 1021.8 - 0.0
04/10:00pm 8.0 2.4 1.1 62 2.8 SW 20 28 11 15 1021.9 - 0.0
04/09:45pm 8.1 2.5 1.0 61 2.9 SW 20 28 11 15 1022.0 - 0.0
04/09:30pm 8.2 2.2 1.2 61 2.9 SW 22 30 12 16 1022.1 - 0.0
04/09:15pm 8.2 2.6 1.1 61 2.9 SW 20 32 11 17 1022.3 - 0.0
04/09:00pm 8.3 2.9 1.2 61 2.9 SW 19 24 10 13 1022.3 - 0.0
04/08:45pm 8.3 3.2 1.0 60 3.0 SW 17 22 9 12 1022.3 - 0.0
04/08:30pm 8.6 3.2 1.0 59 3.1 SW 19 22 10 12 1022.2 - 0.0
04/08:15pm 8.9 3.8 0.9 57 3.3 SW 17 22 9 12 1022.2 - 0.0
04/08:00pm 9.3 3.9 1.1 56 3.4 SW 19 22 10 12 1022.2 - 0.0
04/07:45pm 9.5 4.2 1.6 58 3.3 SW 19 24 10 13 1022.1 - 0.0
04/07:30pm 9.0 3.3 2.9 65 2.6 SSW 22 30 12 16 1022.0 - 0.0
04/07:15pm 7.1 1.7 2.3 71 2.0 SSW 20 28 11 15 1021.8 - 0.0
04/07:00pm 7.8 4.5 2.2 68 2.3 S 9 17 5 9 1021.7 - 0.0
04/06:45pm 8.3 5.5 2.9 69 2.3 SSW 7 17 4 9 1021.7 - 0.0
04/06:30pm 7.8 5.5 2.6 69 2.2 S 4 11 2 6 1021.7 - 0.0
04/06:15pm 8.1 6.1 2.4 67 2.4 SE 2 4 1 2 1021.5 - 0.0
04/06:00pm 8.6 6.2 2.3 64 2.7 SE 4 4 2 2 1021.4 - 0.0
04/05:45pm 8.9 6.5 2.3 63 2.8 SE 4 6 2 3 1021.1 - 0.0
04/05:30pm 9.2 6.4 2.2 61 3.0 SE 6 7 3 4 1021.0 - 0.0
04/05:15pm 9.9 7.2 2.4 59 3.2 SE 6 7 3 4 1021.0 - 0.0
04/05:00pm 10.7 8.3 2.4 56 3.6 SE 4 6 2 3 1020.9 - 0.0
04/04:45pm 11.7 8.8 2.5 53 4.0 SSE 7 9 4 5 1020.8 - 0.0
04/04:30pm 12.5 9.6 2.7 51 4.3 SE 7 9 4 5 1020.7 - 0.0
04/04:15pm 13.0 10.1 2.8 50 4.5 SSE 7 9 4 5 1020.6 - 0.0
04/04:00pm 13.3 10.0 2.7 48 4.7 SE 9 11 5 6 1020.4 - 0.0
04/03:45pm 13.6 10.7 2.6 47 4.9 SSE 7 9 4 5 1020.3 - 0.0
04/03:30pm 14.2 11.5 2.4 45 5.2 SSE 6 9 3 5 1020.3 - 0.0
04/03:15pm 14.6 11.0 0.8 39 6.0 S 9 15 5 8 1020.2 - 0.0
04/03:00pm 14.6 9.3 -0.6 35 6.4 SW 17 22 9 12 1020.1 - 0.0
04/02:45pm 14.8 11.1 -0.1 36 6.3 SW 9 19 5 10 1019.9 - 0.0
04/02:30pm 14.4 10.7 -0.1 37 6.1 WSW 9 17 5 9 1019.9 - 0.0
04/02:15pm 14.2 10.8 -0.3 37 6.1 SW 7 15 4 8 1019.9 - 0.0
04/02:00pm 13.9 9.7 -0.7 36 6.1 WSW 11 20 6 11 1019.9 - 0.0
04/01:45pm 13.8 9.2 -0.9 36 6.1 SW 13 20 7 11 1019.9 - 0.0
04/01:30pm 13.6 9.8 -0.9 37 6.0 WSW 9 19 5 10 1019.9 - 0.0
04/01:15pm 13.2 8.9 -1.4 36 5.9 WSW 11 19 6 10 1020.2 - 0.0
04/01:00pm 13.0 8.7 -1.8 36 5.9 WSW 11 19 6 10 1020.4 - 0.0
04/12:45pm 12.8 8.2 -1.1 38 5.6 W 13 20 7 11 1020.6 - 0.0
04/12:30pm 12.2 7.6 -1.3 39 5.4 W 13 19 7 10 1020.8 - 0.0
04/12:15pm 12.0 7.8 -0.8 41 5.2 W 11 19 6 10 1021.0 - 0.0
04/12:00pm 11.8 7.6 -0.8 41 5.1 W 11 17 6 9 1021.2 - 0.0
04/11:45am 11.2 7.0 -0.9 43 4.9 W 11 19 6 10 1021.4 - 0.0
04/11:30am 10.9 6.7 -0.7 44 4.7 W 11 17 6 9 1021.7 - 0.0
04/11:15am 10.6 6.4 -0.7 45 4.5 W 11 17 6 9 1021.8 - 0.0
04/11:00am 10.1 6.0 0.1 50 4.1 W 11 15 6 8 1022.0 - 0.0
04/10:45am 9.6 5.6 0.4 52 3.7 W 11 17 6 9 1022.2 - 0.0
04/10:30am 9.0 5.5 1.4 59 3.1 W 9 15 5 8 1022.3 - 0.0
04/10:15am 8.3 5.3 1.9 64 2.7 WSW 7 13 4 7 1022.5 - 0.0
04/10:00am 7.6 4.3 2.5 70 2.1 W 9 15 5 8 1022.8 - 0.0
04/09:45am 5.9 2.8 1.6 74 1.7 W 7 13 4 7 1022.8 - 0.0
04/09:30am 5.3 2.1 1.0 74 1.7 WSW 7 11 4 6 1022.8 - 0.0
04/09:15am 5.3 1.4 1.0 74 1.7 WSW 11 15 6 8 1022.8 - 0.0
04/09:00am 4.9 1.3 0.7 74 1.6 WSW 9 13 5 7 1022.6 - 0.0
04/08:45am 5.2 2.2 0.8 73 1.7 W 6 13 3 7 1022.5 - 0.0
04/08:30am 5.4 1.9 1.2 74 1.7 W 9 17 5 9 1022.6 - 0.0
04/08:15am 4.9 0.3 1.3 77 1.4 WSW 15 19 8 10 1022.6 - 0.0
04/08:00am 4.1 -1.0 0.7 78 1.3 WSW 17 19 9 10 1022.7 - 0.0
04/07:45am 3.7 -1.1 0.5 79 1.2 SW 15 19 8 10 1022.6 - 0.0
04/07:30am 2.8 -2.5 -0.4 79 1.2 SW 17 19 9 10 1022.7 - 0.0
04/07:15am 2.6 -2.0 -0.7 79 1.2 SW 13 17 7 9 1022.6 - 0.0
04/07:00am 3.3 -1.2 0.0 79 1.2 SW 13 17 7 9 1022.4 - 0.0
04/06:45am 3.8 -0.9 0.7 80 1.2 WSW 15 17 8 9 1022.3 - 0.0
04/06:30am 4.0 -1.4 1.2 82 1.1 WSW 19 22 10 12 1022.1 - 0.0
04/06:15am 3.4 -2.2 0.9 84 1.0 SW 20 24 11 13 1022.2 - 0.0
04/06:00am 3.7 -0.9 1.3 84 0.9 SW 15 19 8 10 1022.0 - 0.0
04/05:45am 4.6 -0.6 2.6 87 0.8 WSW 19 22 10 12 1022.1 - 0.0
04/05:30am 3.4 -2.0 1.5 87 0.7 WSW 19 24 10 13 1022.1 - 0.0
04/05:15am 3.1 -1.2 1.2 87 0.7 SW 13 17 7 9 1022.0 - 0.0
04/05:00am 2.8 -1.5 1.0 88 0.7 SW 13 17 7 9 1022.0 - 0.0
04/04:45am 2.6 -2.1 0.8 88 0.7 WSW 15 17 8 9 1022.2 - 0.0
04/04:30am 2.6 -1.7 0.7 87 0.7 SW 13 17 7 9 1022.5 - 0.0
04/04:15am 2.8 -1.5 1.0 88 0.7 SW 13 17 7 9 1022.6 - 0.0
04/04:00am 2.9 -1.4 1.1 88 0.7 SW 13 17 7 9 1022.7 - 0.0
04/03:45am 3.7 -0.8 2.0 89 0.7 SW 15 17 8 9 1022.8 - 0.0
04/03:30am 3.4 -0.8 1.7 89 0.7 SW 13 17 7 9 1023.1 - 0.0
04/03:15am 2.8 -1.5 1.0 88 0.7 SW 13 15 7 8 1023.1 - 0.0
04/03:00am 2.7 -1.6 0.9 88 0.7 SW 13 15 7 8 1023.2 - 0.0
04/02:45am 2.9 -1.0 1.1 88 0.7 WSW 11 13 6 7 1023.4 - 0.0
04/02:30am 3.1 -0.8 1.3 88 0.7 WSW 11 13 6 7 1023.7 - 0.0
04/02:15am 3.2 -0.7 1.4 88 0.7 WSW 11 13 6 7 1023.8 - 0.0
04/02:00am 3.3 -0.5 1.5 88 0.7 WSW 11 13 6 7 1023.9 - 0.0
04/01:45am 2.9 -0.6 1.1 88 0.7 WSW 9 11 5 6 1023.9 - 0.0
04/01:30am 2.8 -0.8 0.9 87 0.7 SW 9 9 5 5 1023.9 - 0.0
04/01:15am 3.0 -0.5 1.1 87 0.7 SW 9 9 5 5 1024.0 - 0.0
04/01:00am 2.9 -0.6 1.0 87 0.7 SW 9 9 5 5 1024.2 - 0.0
04/12:45am 2.8 -0.8 0.9 87 0.7 SW 9 9 5 5 1024.4 - 0.0
04/12:30am 3.0 -0.5 1.1 87 0.7 SW 9 9 5 5 1024.6 - 0.0
04/12:15am 3.0 -0.5 1.0 87 0.8 SW 9 11 5 6 1024.8 - 0.0
04/12:00am 3.0 -0.9 1.0 87 0.8 SW 11 13 6 7 1025.0 - 0.0
 
Date/Time
EST
Temp
°C
App
Temp
°C
Dew
Point
Rel
Hum
%
Delta-T
°C
Wind Press
QNH
hPa
Press
MSL
hPa
Rain
since 9 am
mm
Dir
 
Spd
km/h
Gust
km/h
Spd
kts
Gust
kts
03/11:45pm 2.9 -1.0 0.9 87 0.8 SW 11 13 6 7 1025.2 - 0.0
03/11:30pm 3.1 -0.4 1.0 86 0.8 SW 9 9 5 5 1025.3 - 0.0
03/11:15pm 3.4 0.3 1.3 86 0.8 WSW 7 9 4 5 1025.3 - 0.0
03/11:00pm 3.6 0.7 1.4 85 0.9 WSW 6 7 3 4 1025.4 - 0.0
03/10:45pm 3.8 1.7 1.6 85 0.9 SW 2 4 1 2 1025.5 - 0.0
03/10:30pm 3.9 2.2 1.6 85 0.9 CALM 0 2 0 1 1025.6 - 0.0
03/10:15pm 4.0 2.3 1.7 85 0.9 CALM 0 2 0 1 1025.6 - 0.0
03/10:00pm 4.1 2.0 1.7 84 1.0 E 2 4 1 2 1025.6 - 0.0
03/09:45pm 4.3 2.2 1.8 84 1.0 E 2 4 1 2 1025.6 - 0.0
03/09:30pm 4.5 2.1 1.9 83 1.0 E 4 4 2 2 1025.7 - 0.0
03/09:15pm 4.7 2.3 2.0 83 1.1 ESE 4 6 2 3 1025.7 - 0.0
03/09:00pm 4.8 2.0 1.9 81 1.2 SE 6 6 3 3 1025.7 - 0.0
03/08:45pm 5.3 2.9 2.3 81 1.2 SE 4 6 2 3 1025.7 - 0.0
03/08:30pm 5.5 2.8 2.4 80 1.3 SE 6 6 3 3 1025.7 - 0.0
03/08:15pm 6.0 3.3 2.8 80 1.3 SE 6 7 3 4 1025.8 - 0.0
03/08:00pm 6.3 3.5 3.0 79 1.4 SE 7 7 4 4 1025.7 - 0.0
03/07:45pm 6.6 3.8 3.2 79 1.4 SE 7 9 4 5 1025.8 - 0.0
03/07:30pm 6.9 3.8 3.4 78 1.5 SSE 9 9 5 5 1025.7 - 0.0
03/07:15pm 7.2 4.1 3.6 78 1.5 SSE 9 9 5 5 1025.8 - 0.0
03/07:00pm 7.3 4.2 3.5 77 1.6 SSE 9 11 5 6 1025.7 - 0.0
03/06:45pm 7.7 4.6 3.7 76 1.7 SSE 9 9 5 5 1025.6 - 0.0
03/06:30pm 7.8 5.1 3.6 75 1.8 SSE 7 9 4 5 1025.6 - 0.0
03/06:15pm 8.1 5.4 3.6 73 1.9 SSE 7 9 4 5 1025.4 - 0.0
03/06:00pm 8.5 5.4 3.7 72 2.1 SSE 9 9 5 5 1025.3 - 0.0
03/05:45pm 9.0 6.0 3.9 70 2.2 SSE 9 9 5 5 1025.2 - 0.0
03/05:30pm 9.5 6.4 3.8 67 2.5 SSE 9 11 5 6 1025.2 - 0.0
03/05:15pm 10.2 7.2 4.1 66 2.7 SE 9 11 5 6 1025.1 - 0.0
03/05:00pm 10.6 7.6 4.1 64 2.9 SE 9 11 5 6 1025.1 - 0.0
03/04:45pm 11.0 8.0 4.1 62 3.1 SE 9 13 5 7 1025.1 - 0.0
03/04:30pm 11.5 8.1 4.1 60 3.3 SE 11 13 6 7 1025.1 - 0.0
03/04:15pm 11.8 8.8 4.3 60 3.4 SE 9 13 5 7 1025.1 - 0.0
03/04:00pm 12.0 9.1 4.4 59 3.5 SE 9 11 5 6 1025.1 - 0.0
03/03:45pm 12.3 9.4 4.4 58 3.6 SSE 9 11 5 6 1025.0 - 0.0
03/03:30pm 12.4 10.0 4.4 58 3.7 SE 6 9 3 5 1024.8 - 0.0
03/03:15pm 12.3 9.8 4.5 59 3.6 SE 7 13 4 7 1024.7 - 0.0
03/03:00pm 12.1 9.1 4.3 59 3.6 SE 9 13 5 7 1024.7 - 0.0
03/02:45pm 12.2 9.2 4.2 58 3.6 SE 9 13 5 7 1024.7 - 0.0
03/02:30pm 12.4 9.4 4.0 56 3.8 ESE 9 15 5 8 1024.7 - 0.0
03/02:15pm 13.3 10.3 3.9 53 4.3 SSE 9 17 5 9 1024.6 - 0.0
03/02:00pm 13.5 10.5 4.1 53 4.3 ESE 9 17 5 9 1024.8 - 0.0
03/01:45pm 12.8 10.1 3.7 54 4.1 SE 7 13 4 7 1024.9 - 0.0
03/01:30pm 12.8 9.6 3.2 52 4.3 SSE 9 19 5 10 1025.1 - 0.0
03/01:15pm 13.6 10.1 3.6 51 4.5 SSE 11 19 6 10 1025.3 - 0.0
03/01:00pm 13.1 10.4 3.8 53 4.2 S 7 17 4 9 1025.5 - 0.0
03/12:45pm 13.2 10.1 3.8 53 4.3 S 9 15 5 8 1025.7 - 0.0
03/12:30pm 13.5 9.6 3.4 50 4.6 SSE 13 22 7 12 1025.8 - 0.0
03/12:15pm 13.7 10.3 3.9 51 4.5 S 11 19 6 10 1026.0 - 0.0
03/12:00pm 13.4 9.6 3.9 52 4.3 SSE 13 19 7 10 1026.2 - 0.0
03/11:45am 13.1 8.5 3.6 52 4.3 SSE 17 26 9 14 1026.3 - 0.0
03/11:30am 13.5 9.7 4.1 53 4.3 S 13 26 7 14 1026.5 - 0.0
03/11:15am 13.3 8.8 4.3 54 4.1 S 17 22 9 12 1026.6 - 0.0
03/11:00am 12.9 8.4 4.1 55 4.0 S 17 24 9 13 1026.8 - 0.0
03/10:45am 12.7 9.0 4.2 56 3.9 S 13 22 7 12 1026.9 - 0.0
03/10:30am 12.6 8.9 4.6 58 3.7 S 13 22 7 12 1026.9 - 0.0
03/10:15am 11.6 8.6 4.0 59 3.4 SW 9 17 5 9 1026.9 - 0.0
03/10:00am 10.8 7.3 3.3 60 3.3 SW 11 17 6 9 1026.9 - 0.0
03/09:45am 10.2 6.6 2.9 60 3.2 SW 11 17 6 9 1026.8 - 0.0
03/09:30am 9.3 5.6 2.2 61 3.0 SW 11 17 6 9 1026.7 - 0.0
03/09:15am 8.8 4.6 1.9 62 2.9 SW 13 17 7 9 1026.5 - 0.0
03/09:00am 8.2 4.1 2.0 65 2.6 SW 13 17 7 9 1026.4 - 0.0
03/08:45am 6.8 2.9 1.0 66 2.3 SSW 11 17 6 9 1026.3 - 0.0
03/08:30am 5.7 0.9 0.3 68 2.1 SSW 15 19 8 10 1026.3 - 0.0
03/08:15am 4.7 -1.0 -0.4 69 1.9 SSW 19 22 10 12 1026.2 - 0.0
03/08:00am 4.1 -1.8 -0.8 70 1.8 SW 20 22 11 12 1026.2 - 0.0
03/07:45am 3.6 -2.4 -1.3 70 1.8 SW 20 22 11 12 1026.1 - 0.0
03/07:30am 3.5 -2.3 -1.5 70 1.8 SW 19 20 10 11 1026.0 - 0.0
03/07:15am 3.4 -2.4 -1.7 69 1.8 SW 19 22 10 12 1025.9 - 0.0
03/07:00am 3.7 -1.8 -1.8 67 2.0 WSW 17 19 9 10 1025.8 - 0.0
03/06:45am 3.9 -1.2 -1.6 67 2.0 SW 15 19 8 10 1025.6 - 0.0
03/06:30am 4.0 -0.7 -1.6 67 2.0 SW 13 17 7 9 1025.4 - 0.0
03/06:15am 4.0 -1.4 -1.7 66 2.1 SW 17 22 9 12 1025.2 - 0.0
03/06:00am 4.0 -1.5 -1.8 66 2.1 SW 17 22 9 12 1025.0 - 0.0
03/05:45am 4.1 -1.4 -1.8 65 2.1 SW 17 22 9 12 1024.9 - 0.0
03/05:30am 4.2 -1.6 -1.8 65 2.2 SW 19 28 10 15 1024.9 - 0.0
03/05:15am 4.2 -1.8 -1.8 65 2.2 SW 20 28 11 15 1024.8 - 0.0
03/05:00am 4.2 -1.7 -1.9 64 2.2 SW 19 24 10 13 1024.7 - 0.0
03/04:45am 4.3 -1.7 -1.8 64 2.2 SW 20 28 11 15 1024.8 - 0.0
03/04:30am 4.2 -1.8 -1.9 64 2.2 SW 20 28 11 15 1024.6 - 0.0
03/04:15am 4.4 -1.6 -1.8 64 2.3 SW 20 30 11 16 1024.3 - 0.0
03/04:00am 4.4 -3.1 -1.7 64 2.2 SW 28 33 15 18 1024.1 - 0.0
03/03:45am 4.6 -1.8 -1.8 63 2.3 WSW 22 28 12 15 1024.0 - 0.0
03/03:30am 5.0 -0.8 -1.6 62 2.4 SW 19 24 10 13 1023.9 - 0.0
03/03:15am 5.1 -0.3 -1.6 62 2.5 SSW 17 20 9 11 1023.9 - 0.0
03/03:00am 5.1 -0.7 -1.7 61 2.5 SSW 19 24 10 13 1023.9 - 0.0
03/02:45am 5.3 0.2 -1.8 60 2.6 SSW 15 22 8 12 1023.9 - 0.0
03/02:30am 5.6 -1.2 -1.7 59 2.7 SW 24 33 13 18 1023.9 - 0.0
03/02:15am 5.8 -1.3 -1.6 59 2.8 SW 26 32 14 17 1024.0 - 0.0
03/02:00am 6.0 -0.8 -1.5 58 2.8 SW 24 30 13 16 1023.9 - 0.0
03/01:45am 6.1 -0.7 -1.5 58 2.8 SW 24 32 13 17 1023.9 - 0.0
03/01:30am 6.3 0.3 -1.5 57 2.9 SW 20 30 11 16 1023.9 - 0.0
03/01:15am 6.5 0.5 -1.4 57 3.0 SW 20 33 11 18 1023.9 - 0.0
03/01:00am 6.6 -0.1 -1.2 57 3.0 SW 24 32 13 17 1023.8 - 0.0
03/12:45am 6.7 0.0 -1.1 57 3.0 SW 24 33 13 18 1023.8 - 0.0
03/12:30am 6.9 0.2 -1.1 57 3.1 SW 24 28 13 15 1024.0 - 0.0
03/12:15am 7.2 0.5 -1.3 55 3.2 SW 24 30 13 16 1024.1 - 0.0
03/12:00am 7.5 0.8 -0.8 55 3.2 SW 24 32 13 17 1024.1 - 0.0
 
Date/Time
EST
Temp
°C
App
Temp
°C
Dew
Point
Rel
Hum
%
Delta-T
°C
Wind Press
QNH
hPa
Press
MSL
hPa
Rain
since 9 am
mm
Dir
 
Spd
km/h
Gust
km/h
Spd
kts
Gust
kts
02/11:45pm 7.6 1.0 -0.4 57 3.1 SW 24 32 13 17 1024.2 - 0.0
02/11:30pm 7.6 1.1 0.0 58 3.0 SW 24 32 13 17 1024.2 - 0.0
02/11:15pm 7.8 1.7 0.3 59 3.0 SW 22 33 12 18 1024.2 - 0.0
02/11:00pm 8.0 1.9 0.5 59 3.0 SW 22 32 12 17 1024.2 - 0.0
02/10:45pm 8.1 1.7 0.7 59 3.0 SW 24 32 13 17 1023.9 - 0.0
02/10:30pm 8.4 1.6 0.9 59 3.1 SW 26 37 14 20 1023.7 - 0.0
02/10:15pm 8.5 1.0 1.3 60 3.0 SW 30 39 16 21 1023.6 - 0.0
02/10:00pm 8.7 1.6 1.4 60 3.0 SW 28 39 15 21 1023.6 - 0.0
02/09:45pm 8.8 1.7 1.4 60 3.1 SW 28 37 15 20 1023.5 - 0.0
02/09:30pm 9.0 2.7 1.3 58 3.2 SW 24 37 13 20 1023.6 - 0.0
02/09:15pm 8.9 2.9 1.2 58 3.2 SW 22 32 12 17 1023.3 - 0.0
02/09:00pm 9.1 3.5 1.1 57 3.3 SW 20 30 11 16 1023.2 - 0.0
02/08:45pm 9.2 3.3 1.5 58 3.2 SSW 22 33 12 18 1022.9 - 0.0
02/08:30pm 9.1 3.2 1.6 59 3.1 SW 22 33 12 18 1022.7 - 0.0
02/08:15pm 9.2 3.3 1.6 59 3.2 SW 22 37 12 20 1022.4 - 0.0
02/08:00pm 9.1 3.7 1.5 59 3.2 SW 19 24 10 13 1022.1 - 0.0
02/07:45pm 9.2 4.6 1.3 58 3.3 SW 15 22 8 12 1021.9 - 0.0
02/07:30pm 9.6 5.0 1.3 56 3.5 SW 15 22 8 12 1021.6 - 0.0
02/07:15pm 10.0 5.0 1.2 54 3.7 SW 17 24 9 13 1021.2 - 0.0
02/07:00pm 10.5 4.5 1.3 53 3.9 SW 22 32 12 17 1021.1 - 0.0
02/06:45pm 10.7 4.4 1.5 53 3.9 SW 24 33 13 18 1021.0 - 0.0
02/06:30pm 10.7 4.4 1.6 53 3.9 SW 24 39 13 21 1020.5 - 0.0
02/06:15pm 10.8 4.1 1.7 53 3.9 WSW 26 48 14 26 1019.9 - 0.0
02/06:00pm 11.0 3.6 2.1 54 3.8 WSW 30 46 16 25 1019.5 - 0.0
02/05:45pm 11.2 3.9 2.6 55 3.7 WSW 30 43 16 23 1019.5 - 0.0
02/05:30pm 11.4 5.3 2.9 56 3.7 WSW 24 39 13 21 1019.3 - 0.0
02/05:15pm 11.7 4.5 3.1 55 3.8 WSW 30 48 16 26 1019.0 - 0.0
02/05:00pm 12.1 4.9 3.2 54 4.0 WSW 30 43 16 23 1018.9 - 0.0
02/04:45pm 12.3 5.9 3.3 54 4.0 W 26 41 14 22 1018.5 - 0.0
02/04:30pm 12.7 6.7 3.3 52 4.2 WSW 24 37 13 20 1018.4 - 0.0
02/04:15pm 13.0 5.5 3.4 52 4.3 WSW 32 46 17 25 1018.2 - 0.0
02/04:00pm 13.2 8.0 3.6 52 4.3 WSW 20 37 11 20 1018.0 - 0.0
02/03:45pm 13.9 7.2 3.6 50 4.7 WSW 28 44 15 24 1017.9 - 0.0
02/03:30pm 14.1 7.1 3.9 50 4.7 WSW 30 43 16 23 1017.8 - 0.0
02/03:15pm 14.1 7.8 3.6 49 4.8 W 26 43 14 23 1017.5 - 0.0
02/03:00pm 14.3 8.4 3.7 49 4.9 W 24 37 13 20 1017.5 - 0.0
02/02:45pm 14.3 7.6 3.5 48 4.9 W 28 39 15 21 1017.4 - 0.0
02/02:30pm 14.3 7.2 3.4 48 5.0 WSW 30 44 16 24 1017.3 - 0.0
02/02:15pm 14.3 6.8 3.3 47 5.0 WSW 32 44 17 24 1017.2 - 0.0
02/02:00pm 14.4 6.9 3.4 47 5.0 WSW 32 44 17 24 1017.3 - 0.0
02/01:45pm 14.5 7.4 3.6 48 5.0 SW 30 44 16 24 1017.4 - 0.0
02/01:30pm 14.8 8.5 3.9 48 5.0 SW 26 44 14 24 1017.4 - 0.0
02/01:15pm 14.6 8.7 3.9 48 4.9 SW 24 37 13 20 1017.4 - 0.0
02/01:00pm 14.2 6.5 3.5 48 4.9 WSW 33 50 18 27 1017.5 - 0.0
02/12:45pm 14.1 6.5 3.7 49 4.8 SW 33 52 18 28 1017.7 - 0.0
02/12:30pm 13.7 4.9 3.5 50 4.6 WSW 39 56 21 30 1017.8 - 0.0
02/12:15pm 13.4 5.4 3.6 51 4.4 WSW 35 52 19 28 1018.1 - 0.0
02/12:00pm 13.2 5.2 3.6 52 4.3 WSW 35 52 19 28 1018.4 - 0.0
02/11:45am 13.0 4.9 3.4 52 4.3 WSW 35 48 19 26 1018.8 - 0.0
02/11:30am 12.8 4.3 3.3 52 4.3 WSW 37 57 20 31 1018.9 - 0.0
02/11:15am 12.6 4.5 3.3 53 4.2 WSW 35 56 19 30 1019.0 - 0.0
02/11:00am 12.2 5.0 3.2 54 4.0 WSW 30 43 16 23 1019.2 - 0.0
02/10:45am 11.9 4.7 3.1 55 3.9 WSW 30 43 16 23 1019.5 - 0.0
02/10:30am 11.5 3.9 3.0 56 3.7 WSW 32 48 17 26 1019.7 - 0.0
02/10:15am 11.5 5.5 3.3 57 3.6 WSW 24 43 13 23 1019.7 - 0.0
02/10:00am 10.8 3.6 3.0 58 3.4 WSW 30 44 16 24 1019.7 - 0.0
02/09:45am 10.5 3.7 3.2 60 3.2 WSW 28 50 15 27 1019.7 - 0.0
02/09:30am 9.9 5.6 3.5 64 2.8 W 15 32 8 17 1019.8 - 0.0
02/09:15am 8.8 4.4 2.8 66 2.6 WSW 15 22 8 12 1019.9 - 0.0
02/09:00am 8.5 3.7 2.4 65 2.6 WSW 17 24 9 13 1020.0 - 0.0
02/08:45am 8.4 3.2 2.2 65 2.6 WSW 19 26 10 14 1020.0 - 0.0

Other Formats:

Comma delimited format used in spreadsheet applications
http://www.bom.gov.au/fwo/IDN60801/IDN60801.95757.axf

JavaScript Object Notation format (JSON) in row-major order
http://www.bom.gov.au/fwo/IDN60801/IDN60801.95757.json